Terminal Aerodrome Forecast
Issued by NWS Riverton, WY

Home | Current Version | Previous Version | Text Only | Print | Product List | Glossary On
Versions: 1 2 3 4 5 6 7 8 9 10 11 12
000
FTUS45 KRIW 101700
TAFRIW
TAF
KRIW 101724Z 1018/1118 VRB06KT P6SM BKN110
     FM102200 04008KT P6SM VCTS SCT090CB OVC110
     FM110500 VRB06KT P6SM SCT110 BKN200=

USA.gov is the U.S. government's official web portal to all federal, state and local government web resources and services.